createdAt,value
2022-11-05T00:00:49.823Z,95.61
2022-11-05T00:01:50.127Z,95.45
2022-11-05T00:02:49.789Z,95.40
2022-11-05T00:03:49.822Z,95.45
2022-11-05T00:04:49.788Z,95.30
2022-11-05T00:05:49.768Z,95.55
2022-11-05T00:06:49.751Z,95.30
2022-11-05T00:07:49.759Z,95.55
2022-11-05T00:08:49.728Z,95.65
2022-11-05T00:09:49.719Z,95.14
2022-11-05T00:10:49.700Z,95.14
2022-11-05T00:11:49.725Z,94.42
2022-11-05T00:12:49.694Z,94.62
2022-11-05T00:13:49.685Z,95.03
2022-11-05T00:14:49.652Z,95.55
2022-11-05T00:15:49.659Z,95.45
2022-11-05T00:16:49.629Z,95.45
2022-11-05T00:17:49.623Z,95.65
2022-11-05T00:18:49.626Z,95.34
2022-11-05T00:19:49.596Z,95.03
2022-11-05T00:20:49.586Z,95.34
2022-11-05T00:21:49.588Z,95.55
2022-11-05T00:22:49.577Z,95.55
2022-11-05T00:23:49.772Z,95.86
2022-11-05T00:24:49.547Z,95.65
2022-11-05T00:25:49.537Z,95.34
2022-11-05T00:26:49.538Z,95.08
2022-11-05T00:27:49.516Z,94.87
2022-11-05T00:28:49.507Z,94.77
2022-11-05T00:29:49.502Z,94.77
2022-11-05T00:30:49.480Z,94.87
2022-11-05T00:31:49.461Z,94.56
2022-11-05T00:32:49.459Z,94.87
2022-11-05T00:33:49.456Z,94.56
2022-11-05T00:34:49.441Z,94.56
2022-11-05T00:35:49.438Z,94.26
2022-11-05T00:36:49.419Z,94.46
2022-11-05T00:37:50.566Z,94.56
2022-11-05T00:38:49.408Z,94.67
2022-11-05T00:39:49.393Z,94.67
2022-11-05T00:40:49.366Z,94.67
2022-11-05T00:41:49.353Z,94.15
2022-11-05T00:42:49.349Z,94.56
2022-11-05T00:43:49.346Z,94.20
2022-11-05T00:44:49.327Z,94.40
2022-11-05T00:45:49.331Z,94.30
2022-11-05T00:46:49.312Z,93.99
2022-11-05T00:47:49.296Z,94.40
2022-11-05T00:48:49.300Z,93.99
2022-11-05T00:49:49.270Z,94.09
2022-11-05T00:50:49.267Z,94.34
2022-11-05T00:51:49.257Z,93.83
2022-11-05T00:52:49.250Z,93.99
2022-11-05T00:53:49.226Z,94.34
2022-11-05T00:54:49.217Z,94.13
2022-11-05T00:55:49.219Z,93.93
2022-11-05T00:56:49.197Z,94.13
2022-11-05T00:57:49.185Z,94.20
2022-11-05T00:58:49.179Z,94.45
2022-11-05T00:59:49.157Z,94.03
2022-11-05T01:00:49.156Z,93.73
2022-11-05T01:01:49.232Z,94.24
2022-11-05T01:02:49.269Z,93.93
2022-11-05T01:03:51.897Z,94.24
2022-11-05T01:04:49.116Z,94.34
2022-11-05T01:05:49.097Z,94.45
2022-11-05T01:06:49.082Z,94.13
2022-11-05T01:07:49.073Z,94.34
2022-11-05T01:08:49.069Z,94.34
2022-11-05T01:09:49.053Z,94.45
2022-11-05T01:10:49.045Z,94.03
2022-11-05T01:11:49.041Z,94.13
2022-11-05T01:12:49.020Z,94.76
2022-11-05T01:13:49.033Z,94.13
2022-11-05T01:14:49.004Z,94.13
2022-11-05T01:15:48.993Z,94.34
2022-11-05T01:16:48.973Z,94.13
2022-11-05T01:17:48.960Z,94.38
2022-11-05T01:18:49.423Z,94.34
2022-11-05T01:19:48.944Z,94.13
2022-11-05T01:20:48.925Z,94.38
2022-11-05T01:21:48.917Z,94.03
2022-11-05T01:22:48.918Z,94.85
2022-11-05T01:23:48.898Z,94.85
2022-11-05T01:24:48.897Z,94.80
2022-11-05T01:25:48.873Z,94.85
2022-11-05T01:26:48.864Z,94.24
2022-11-05T01:27:48.864Z,94.38
2022-11-05T01:28:49.001Z,94.34
2022-11-05T01:29:48.823Z,94.55
2022-11-05T01:30:48.820Z,94.65
2022-11-05T01:31:48.802Z,94.85
2022-11-05T01:32:48.812Z,94.96
2022-11-05T01:33:48.790Z,95.06
2022-11-05T01:34:48.775Z,95.48
2022-11-05T01:35:48.765Z,95.53
2022-11-05T01:36:48.750Z,95.17
2022-11-05T01:37:48.736Z,95.74
2022-11-05T01:38:48.738Z,96.09
2022-11-05T01:39:48.717Z,95.95
2022-11-05T01:40:48.711Z,95.89
2022-11-05T01:41:48.698Z,96.05
2022-11-05T01:42:48.688Z,95.68
2022-11-05T01:43:48.717Z,96.05
2022-11-05T01:44:48.671Z,96.09
2022-11-05T01:45:48.646Z,95.78
2022-11-05T01:46:48.650Z,96.41
2022-11-05T01:47:48.628Z,96.30
2022-11-05T01:48:48.619Z,95.17
2022-11-05T01:49:48.653Z,95.27
2022-11-05T01:50:48.597Z,95.17
2022-11-05T01:51:48.588Z,95.89
2022-11-05T01:52:48.574Z,96.20
2022-11-05T01:53:48.565Z,95.17
2022-11-05T01:54:48.559Z,95.83
2022-11-05T01:55:48.547Z,96.14
2022-11-05T01:56:48.535Z,96.24
2022-11-05T01:57:48.513Z,96.03
2022-11-05T01:58:48.508Z,96.14
2022-11-05T01:59:48.514Z,96.14
2022-11-05T02:00:48.507Z,96.34
2022-11-05T02:01:48.645Z,96.34
2022-11-05T02:02:48.637Z,96.75
2022-11-05T02:03:48.450Z,96.14
2022-11-05T02:04:48.449Z,96.34
2022-11-05T02:05:48.431Z,96.24
2022-11-05T02:06:48.434Z,96.24
2022-11-05T02:07:48.409Z,96.86
2022-11-05T02:08:48.404Z,96.45
2022-11-05T02:09:48.384Z,96.75
2022-11-05T02:10:48.406Z,96.66
2022-11-05T02:11:48.363Z,96.75
2022-11-05T02:12:48.355Z,96.55
2022-11-05T02:13:48.344Z,96.66
2022-11-05T02:14:48.334Z,97.06
2022-11-05T02:15:48.342Z,97.13
2022-11-05T02:16:48.309Z,97.06
2022-11-05T02:17:48.291Z,96.92
2022-11-05T02:18:48.282Z,96.81
2022-11-05T02:19:48.286Z,97.43
2022-11-05T02:20:52.132Z,97.13
2022-11-05T02:21:48.264Z,97.23
2022-11-05T02:22:48.248Z,97.39
2022-11-05T02:23:48.239Z,97.74
2022-11-05T02:24:48.219Z,97.60
2022-11-05T02:25:48.224Z,97.80
2022-11-05T02:26:48.201Z,97.69
2022-11-05T02:27:48.196Z,97.53
2022-11-05T02:28:48.188Z,97.74
2022-11-05T02:29:48.175Z,97.60
2022-11-05T02:30:48.155Z,97.74
2022-11-05T02:31:48.169Z,97.53
2022-11-05T02:32:48.151Z,97.53
2022-11-05T02:33:48.125Z,97.74
2022-11-05T02:34:48.126Z,97.53
2022-11-05T02:35:48.108Z,97.64
2022-11-05T02:36:48.095Z,97.95
2022-11-05T02:37:48.091Z,97.13
2022-11-05T02:38:48.069Z,97.23
2022-11-05T02:39:48.069Z,97.58
2022-11-05T02:40:48.048Z,97.58
2022-11-05T02:41:48.050Z,97.89
2022-11-05T02:42:48.033Z,97.53
2022-11-05T02:43:48.019Z,97.74
2022-11-05T02:44:47.996Z,97.43
2022-11-05T02:45:47.986Z,97.58
2022-11-05T02:46:47.998Z,97.68
2022-11-05T02:47:47.982Z,97.68
2022-11-05T02:48:47.951Z,97.85
2022-11-05T02:49:47.949Z,97.78
2022-11-05T02:50:47.932Z,97.99
2022-11-05T02:51:47.917Z,97.23
2022-11-05T02:52:47.916Z,97.17
2022-11-05T02:53:47.899Z,97.02
2022-11-05T02:54:47.891Z,96.75
2022-11-05T02:55:47.882Z,96.96
2022-11-05T02:56:47.870Z,96.55
2022-11-05T02:57:47.863Z,96.75
2022-11-05T02:58:47.846Z,96.75
2022-11-05T02:59:47.830Z,96.75
2022-11-05T03:00:47.823Z,96.86
2022-11-05T03:01:47.926Z,97.06
2022-11-05T03:02:47.993Z,96.70
2022-11-05T03:03:47.908Z,96.86
2022-11-05T03:04:47.787Z,97.06
2022-11-05T03:05:47.784Z,97.17
2022-11-05T03:06:47.758Z,97.17
2022-11-05T03:07:47.751Z,97.17
2022-11-05T03:08:47.747Z,96.75
2022-11-05T03:09:47.718Z,96.91
2022-11-05T03:10:47.713Z,96.59
2022-11-05T03:11:47.725Z,96.59
2022-11-05T03:12:47.693Z,96.59
2022-11-05T03:13:47.676Z,96.80
2022-11-05T03:14:47.664Z,96.80
2022-11-05T03:15:47.666Z,96.08
2022-11-05T03:16:47.666Z,96.39
2022-11-05T03:17:47.632Z,96.49
2022-11-05T03:18:47.631Z,95.77
2022-11-05T03:19:47.628Z,96.18
2022-11-05T03:20:47.597Z,95.98
2022-11-05T03:21:47.600Z,96.49
2022-11-05T03:22:47.586Z,95.87
2022-11-05T03:23:47.565Z,95.98
2022-11-05T03:24:47.557Z,95.92
2022-11-05T03:25:47.546Z,96.08
2022-11-05T03:26:47.534Z,95.81
2022-11-05T03:27:47.522Z,96.02
2022-11-05T03:28:47.522Z,95.50
2022-11-05T03:29:47.503Z,96.12
2022-11-05T03:30:47.490Z,95.98
2022-11-05T03:31:47.478Z,95.77
2022-11-05T03:32:47.471Z,95.25
2022-11-05T03:33:47.469Z,96.08
2022-11-05T03:34:47.463Z,96.28
2022-11-05T03:35:47.458Z,95.56
2022-11-05T03:36:47.424Z,95.15
2022-11-05T03:37:47.414Z,95.15
2022-11-05T03:38:47.399Z,95.30
2022-11-05T03:39:47.399Z,95.40
2022-11-05T03:40:47.400Z,95.09
2022-11-05T03:41:47.361Z,94.57
2022-11-05T03:42:47.362Z,95.40
2022-11-05T03:43:47.341Z,95.40
2022-11-05T03:44:47.331Z,95.40
2022-11-05T03:45:47.319Z,95.40
2022-11-05T03:46:47.316Z,95.50
2022-11-05T03:47:47.306Z,95.40
2022-11-05T03:48:47.375Z,95.81
2022-11-05T03:49:47.293Z,95.71
2022-11-05T03:50:47.277Z,95.40
2022-11-05T03:51:47.384Z,96.02
2022-11-05T03:52:47.249Z,96.33
2022-11-05T03:53:47.235Z,96.02
2022-11-05T03:54:47.250Z,95.81
2022-11-05T03:55:47.218Z,96.12
2022-11-05T03:56:47.207Z,96.64
2022-11-05T03:57:47.207Z,96.44
2022-11-05T03:58:47.182Z,96.12
2022-11-05T03:59:47.168Z,96.95
2022-11-05T04:00:47.157Z,96.44
2022-11-05T04:01:47.234Z,96.53
2022-11-05T04:02:47.354Z,96.53
2022-11-05T04:03:47.120Z,96.74
2022-11-05T04:04:47.118Z,96.74
2022-11-05T04:05:47.096Z,96.74
2022-11-05T04:06:47.093Z,96.95
2022-11-05T04:07:47.111Z,96.44
2022-11-05T04:08:47.082Z,96.95
2022-11-05T04:09:47.063Z,96.84
2022-11-05T04:10:47.043Z,96.74
2022-11-05T04:11:47.050Z,96.95
2022-11-05T04:12:47.036Z,96.64
2022-11-05T04:13:47.009Z,96.84
2022-11-05T04:14:47.015Z,96.79
2022-11-05T04:15:46.991Z,96.84
2022-11-05T04:16:46.980Z,96.84
2022-11-05T04:17:46.969Z,96.69
2022-11-05T04:18:46.971Z,97.09
2022-11-05T04:19:46.959Z,96.58
2022-11-05T04:20:46.940Z,96.27
2022-11-05T04:21:46.931Z,96.69
2022-11-05T04:22:46.929Z,96.79
2022-11-05T04:23:46.920Z,96.99
2022-11-05T04:24:46.903Z,96.89
2022-11-05T04:25:46.878Z,96.89
2022-11-05T04:26:46.873Z,96.83
2022-11-05T04:27:46.866Z,96.94
2022-11-05T04:28:46.852Z,97.04
2022-11-05T04:29:46.838Z,97.30
2022-11-05T04:30:46.828Z,96.89
2022-11-05T04:31:46.816Z,97.20
2022-11-05T04:32:46.801Z,97.04
2022-11-05T04:33:46.803Z,97.04
2022-11-05T04:34:46.784Z,97.14
2022-11-05T04:35:46.778Z,97.04
2022-11-05T04:36:46.760Z,97.04
2022-11-05T04:37:46.750Z,97.51
2022-11-05T04:38:46.739Z,97.45
2022-11-05T04:39:46.744Z,97.25
2022-11-05T04:40:46.714Z,97.41
2022-11-05T04:41:46.707Z,97.30
2022-11-05T04:42:46.696Z,97.51
2022-11-05T04:43:46.709Z,96.99
2022-11-05T04:44:46.677Z,96.83
2022-11-05T04:45:46.663Z,97.04
2022-11-05T04:46:46.645Z,96.94
2022-11-05T04:47:46.638Z,96.94
2022-11-05T04:48:46.621Z,96.73
2022-11-05T04:49:46.633Z,96.83
2022-11-05T04:50:46.596Z,97.04
2022-11-05T04:51:46.592Z,96.83
2022-11-05T04:52:46.577Z,96.99
2022-11-05T04:53:46.570Z,96.62
2022-11-05T04:54:46.568Z,96.94
2022-11-05T04:55:46.575Z,96.94
2022-11-05T04:56:46.545Z,96.83
2022-11-05T04:57:46.529Z,96.89
2022-11-05T04:58:46.527Z,96.69
2022-11-05T04:59:46.504Z,96.79
2022-11-05T05:00:46.576Z,96.79
2022-11-05T05:01:46.529Z,96.89
2022-11-05T05:02:46.468Z,97.04
2022-11-05T05:03:46.468Z,97.04
2022-11-05T05:04:46.445Z,97.04
2022-11-05T05:05:46.440Z,96.94
2022-11-05T05:06:46.443Z,97.04
2022-11-05T05:07:46.418Z,96.73
2022-11-05T05:08:46.424Z,96.94
2022-11-05T05:09:46.399Z,96.83
2022-11-05T05:10:46.382Z,96.52
2022-11-05T05:11:46.387Z,96.62
2022-11-05T05:12:46.360Z,96.67
2022-11-05T05:13:46.348Z,96.94
2022-11-05T05:14:46.348Z,96.83
2022-11-05T05:15:46.323Z,96.83
2022-11-05T05:16:46.309Z,96.73
2022-11-05T05:17:46.302Z,96.56
2022-11-05T05:18:46.683Z,96.67
2022-11-05T05:19:46.287Z,96.62
2022-11-05T05:20:46.269Z,96.83
2022-11-05T05:21:46.254Z,97.04
2022-11-05T05:22:46.245Z,96.83
2022-11-05T05:23:46.244Z,96.94
2022-11-05T05:24:51.492Z,97.14
2022-11-05T05:25:47.214Z,97.19
2022-11-05T05:26:46.201Z,96.94
2022-11-05T05:27:46.340Z,97.08
2022-11-05T05:28:46.189Z,97.50
2022-11-05T05:29:46.190Z,97.55
2022-11-05T05:30:46.155Z,97.97
2022-11-05T05:31:46.152Z,97.91
2022-11-05T05:32:46.144Z,97.97
2022-11-05T05:33:46.146Z,98.22
2022-11-05T05:34:46.121Z,98.07
2022-11-05T05:35:46.115Z,97.45
2022-11-05T05:36:46.088Z,97.50
2022-11-05T05:37:46.081Z,97.50
2022-11-05T05:38:46.079Z,97.19
2022-11-05T05:39:46.070Z,97.39
2022-11-05T05:40:46.045Z,97.29
2022-11-05T05:41:46.036Z,97.45
2022-11-05T05:42:46.022Z,97.50
2022-11-05T05:43:46.036Z,97.50
2022-11-05T05:44:46.012Z,97.29
2022-11-05T05:45:45.994Z,98.01
2022-11-05T05:46:45.987Z,97.91
2022-11-05T05:47:45.969Z,98.11
2022-11-05T05:48:45.955Z,98.32
2022-11-05T05:49:45.952Z,98.11
2022-11-05T05:50:45.933Z,97.91
2022-11-05T05:51:45.923Z,98.22
2022-11-05T05:52:45.914Z,98.22
2022-11-05T05:53:45.908Z,97.91
2022-11-05T05:54:45.896Z,97.91
2022-11-05T05:55:45.878Z,98.53
2022-11-05T05:56:45.868Z,98.22
2022-11-05T05:57:45.858Z,97.71
2022-11-05T05:58:45.845Z,97.60
2022-11-05T05:59:45.867Z,98.01
2022-11-05T06:00:45.835Z,98.63
2022-11-05T06:01:45.920Z,98.22
2022-11-05T06:02:45.902Z,98.43
2022-11-05T06:03:45.801Z,98.22
2022-11-05T06:04:45.792Z,98.74
2022-11-05T06:05:45.771Z,98.32
2022-11-05T06:06:45.757Z,98.74
2022-11-05T06:07:45.760Z,98.94
2022-11-05T06:08:45.742Z,98.74
2022-11-05T06:09:45.736Z,98.32
2022-11-05T06:10:45.782Z,98.32
2022-11-05T06:11:45.706Z,98.53
2022-11-05T06:12:45.687Z,98.22
2022-11-05T06:13:45.698Z,98.43
2022-11-05T06:14:45.677Z,98.63
2022-11-05T06:15:45.693Z,98.63
2022-11-05T06:16:45.646Z,98.74
2022-11-05T06:17:45.639Z,98.74
2022-11-05T06:18:45.630Z,98.63
2022-11-05T06:19:45.617Z,98.94
2022-11-05T06:20:45.613Z,98.32
2022-11-05T06:21:45.596Z,98.01
2022-11-05T06:22:45.591Z,98.27
2022-11-05T06:23:45.575Z,98.06
2022-11-05T06:24:45.562Z,98.32
2022-11-05T06:25:45.546Z,98.43
2022-11-05T06:26:45.531Z,98.32
2022-11-05T06:27:45.528Z,98.22
2022-11-05T06:28:45.511Z,98.63
2022-11-05T06:29:45.517Z,98.32
2022-11-05T06:30:45.495Z,98.32
2022-11-05T06:31:45.499Z,98.74
2022-11-05T06:32:45.491Z,98.43
2022-11-05T06:33:45.468Z,98.32
2022-11-05T06:34:45.444Z,98.22
2022-11-05T06:35:45.440Z,98.43
2022-11-05T06:36:45.423Z,98.22
2022-11-05T06:37:45.445Z,98.32
2022-11-05T06:38:45.422Z,98.32
2022-11-05T06:39:45.388Z,98.32
2022-11-05T06:40:45.380Z,98.27
2022-11-05T06:42:11.970Z,98.47
2022-11-05T06:42:46.379Z,98.32
2022-11-05T06:43:45.358Z,98.53
2022-11-05T06:44:45.329Z,98.32
2022-11-05T06:45:45.321Z,98.32
2022-11-05T06:46:48.483Z,98.32
2022-11-05T06:47:45.328Z,98.57
2022-11-05T06:48:45.298Z,98.32
2022-11-05T06:49:45.292Z,98.53
2022-11-05T06:50:45.274Z,98.53
2022-11-05T06:51:45.255Z,98.11
2022-11-05T06:52:45.245Z,98.27
2022-11-05T06:53:45.233Z,98.53
2022-11-05T06:54:45.253Z,98.22
2022-11-05T06:55:45.211Z,98.32
2022-11-05T06:56:45.203Z,98.84
2022-11-05T06:57:45.190Z,98.63
2022-11-05T06:58:45.180Z,98.94
2022-11-05T06:59:45.165Z,98.53
2022-11-05T07:00:45.215Z,98.68
2022-11-05T07:01:45.359Z,98.88
2022-11-05T07:02:45.133Z,98.84
2022-11-05T07:03:45.241Z,98.84
2022-11-05T07:04:45.111Z,98.43
2022-11-05T07:05:45.124Z,98.43
2022-11-05T07:06:45.096Z,98.53
2022-11-05T07:07:45.085Z,98.43
2022-11-05T07:08:45.091Z,98.43
2022-11-05T07:09:45.063Z,97.91
2022-11-05T07:10:45.042Z,98.01
2022-11-05T07:11:45.048Z,98.22
2022-11-05T07:12:45.028Z,98.11
2022-11-05T07:13:45.009Z,97.60
2022-11-05T07:14:45.005Z,98.11
2022-11-05T07:15:44.996Z,98.22
2022-11-05T07:16:44.985Z,98.32
2022-11-05T07:17:44.968Z,97.91
2022-11-05T07:18:44.957Z,98.32
2022-11-05T07:19:45.066Z,98.22
2022-11-05T07:20:44.932Z,98.49
2022-11-05T07:21:44.945Z,98.38
2022-11-05T07:22:44.906Z,98.38
2022-11-05T07:23:44.907Z,98.38
2022-11-05T07:24:44.885Z,98.38
2022-11-05T07:25:44.878Z,98.18
2022-11-05T07:26:44.865Z,98.18
2022-11-05T07:27:44.865Z,98.38
2022-11-05T07:28:44.854Z,98.28
2022-11-05T07:29:44.838Z,98.33
2022-11-05T07:30:44.819Z,98.38
2022-11-05T07:31:44.833Z,98.58
2022-11-05T07:32:44.810Z,98.49
2022-11-05T07:33:44.803Z,98.65
2022-11-05T07:34:46.349Z,98.75
2022-11-05T07:35:45.920Z,98.75
2022-11-05T07:36:44.750Z,98.13
2022-11-05T07:37:44.744Z,98.33
2022-11-05T07:38:44.744Z,98.13
2022-11-05T07:39:44.727Z,98.08
2022-11-05T07:40:44.713Z,98.33
2022-11-05T07:41:44.698Z,98.33
2022-11-05T07:42:44.686Z,97.98
2022-11-05T07:43:44.689Z,98.39
2022-11-05T07:44:44.669Z,98.19
2022-11-05T07:45:44.656Z,97.88
2022-11-05T07:46:44.641Z,98.39
2022-11-05T07:47:44.649Z,98.60
2022-11-05T07:48:44.631Z,98.60
2022-11-05T07:49:44.615Z,98.19
2022-11-05T07:50:44.595Z,97.98
2022-11-05T07:51:44.610Z,97.94
2022-11-05T07:52:44.582Z,97.94
2022-11-05T07:53:45.655Z,98.24
2022-11-05T07:54:44.569Z,98.35
2022-11-05T07:55:44.552Z,98.35
2022-11-05T07:56:44.535Z,98.35
2022-11-05T07:57:44.538Z,98.24
2022-11-05T07:58:44.507Z,98.24
2022-11-05T07:59:44.504Z,98.45
2022-11-05T08:00:44.681Z,98.35
2022-11-05T08:01:44.660Z,97.94
2022-11-05T08:02:44.719Z,97.78
2022-11-05T08:03:44.532Z,98.20
2022-11-05T08:04:44.444Z,98.10
2022-11-05T08:05:44.463Z,98.25
2022-11-05T08:06:44.430Z,98.57
2022-11-05T08:07:44.433Z,97.90
2022-11-05T08:08:44.406Z,98.12
2022-11-05T08:09:44.397Z,96.39
2022-11-05T08:10:44.370Z,94.80
2022-11-05T08:11:44.367Z,93.73
2022-11-05T08:12:44.361Z,92.86
2022-11-05T08:13:44.350Z,91.49
2022-11-05T08:14:44.333Z,90.58
2022-11-05T08:15:44.333Z,89.15
2022-11-05T08:16:44.308Z,88.98
2022-11-05T08:17:44.302Z,87.65
2022-11-05T08:18:44.298Z,88.02
2022-11-05T08:19:44.278Z,86.96
2022-11-05T08:20:44.294Z,86.57
2022-11-05T08:21:44.255Z,85.20
2022-11-05T08:22:44.256Z,84.31
2022-11-05T08:23:44.263Z,83.60
2022-11-05T08:24:44.219Z,83.64
2022-11-05T08:25:44.254Z,84.15
2022-11-05T08:26:44.197Z,84.72
2022-11-05T08:27:44.190Z,84.05
2022-11-05T08:28:44.180Z,84.39
2022-11-05T08:29:44.182Z,84.80
2022-11-05T08:30:44.152Z,85.01
2022-11-05T08:31:44.142Z,85.42
2022-11-05T08:32:44.140Z,85.48
2022-11-05T08:33:44.122Z,85.58
2022-11-05T08:34:44.120Z,85.07
2022-11-05T08:35:44.104Z,84.66
2022-11-05T08:36:44.088Z,85.11
2022-11-05T08:37:44.078Z,85.42
2022-11-05T08:38:44.080Z,85.72
2022-11-05T08:39:44.165Z,85.93
2022-11-05T08:40:44.048Z,86.44
2022-11-05T08:41:44.092Z,86.28
2022-11-05T08:42:44.019Z,86.38
2022-11-05T08:43:44.025Z,86.99
2022-11-05T08:44:44.004Z,87.20
2022-11-05T08:45:43.996Z,87.10
2022-11-05T08:46:43.992Z,87.26
2022-11-05T08:47:43.975Z,87.20
2022-11-05T08:48:43.951Z,87.20
2022-11-05T08:49:43.940Z,87.10
2022-11-05T08:50:43.970Z,86.99
2022-11-05T08:51:43.929Z,86.85
2022-11-05T08:52:43.927Z,86.55
2022-11-05T08:53:43.896Z,86.65
2022-11-05T08:54:43.926Z,86.04
2022-11-05T08:55:43.993Z,86.24
2022-11-05T08:56:43.877Z,85.97
2022-11-05T08:57:43.863Z,86.69
2022-11-05T08:58:43.843Z,86.38
2022-11-05T08:59:43.829Z,86.99
2022-11-05T09:00:43.957Z,87.16
2022-11-05T09:01:44.041Z,87.16
2022-11-05T09:02:43.916Z,86.71
2022-11-05T09:03:43.786Z,86.20
2022-11-05T09:04:43.778Z,85.38
2022-11-05T09:05:43.764Z,85.58
2022-11-05T09:06:43.757Z,85.38
2022-11-05T09:07:43.760Z,86.24
2022-11-05T09:08:43.730Z,86.04
2022-11-05T09:09:43.724Z,86.65
2022-11-05T09:10:43.719Z,86.58
2022-11-05T09:12:10.513Z,86.99
2022-11-05T09:12:44.696Z,87.71
2022-11-05T09:13:43.673Z,87.92
2022-11-05T09:14:43.673Z,86.79
2022-11-05T09:15:43.647Z,87.51
2022-11-05T09:16:43.649Z,87.47
2022-11-05T09:17:43.628Z,86.96
2022-11-05T09:18:43.627Z,86.96
2022-11-05T09:19:43.604Z,87.06
2022-11-05T09:20:43.598Z,85.89
2022-11-05T09:21:43.585Z,86.40
2022-11-05T09:22:43.788Z,86.14
2022-11-05T09:23:43.561Z,86.65
2022-11-05T09:24:43.572Z,86.61
2022-11-05T09:25:43.566Z,86.51
2022-11-05T09:26:43.539Z,86.46
2022-11-05T09:27:43.578Z,85.64
2022-11-05T09:28:43.509Z,86.16
2022-11-05T09:29:43.494Z,84.99
2022-11-05T09:30:43.485Z,84.89
2022-11-05T09:31:43.491Z,84.89
2022-11-05T09:32:43.473Z,84.89
2022-11-05T09:33:43.449Z,84.72
2022-11-05T09:34:43.452Z,84.38
2022-11-05T09:35:43.432Z,85.10
2022-11-05T09:36:44.505Z,84.79
2022-11-05T09:37:43.428Z,84.17
2022-11-05T09:38:43.397Z,84.38
2022-11-05T09:39:43.382Z,83.15
2022-11-05T09:40:43.376Z,84.48
2022-11-05T09:41:43.365Z,84.48
2022-11-05T09:42:43.382Z,83.46
2022-11-05T09:43:43.357Z,84.28
2022-11-05T09:44:43.330Z,84.07
2022-11-05T09:45:43.336Z,84.48
2022-11-05T09:46:43.309Z,83.97
2022-11-05T09:47:43.313Z,84.72
2022-11-05T09:48:43.285Z,84.07
2022-11-05T09:49:43.271Z,84.63
2022-11-05T09:50:43.286Z,84.89
2022-11-05T09:51:43.266Z,84.83
2022-11-05T09:52:43.244Z,84.99
2022-11-05T09:53:43.227Z,84.38
2022-11-05T09:54:43.219Z,83.46
2022-11-05T09:55:43.205Z,83.56
2022-11-05T09:56:43.209Z,84.38
2022-11-05T09:57:43.204Z,83.36
2022-11-05T09:58:43.180Z,83.11
2022-11-05T09:59:43.182Z,82.60
2022-11-05T10:00:43.236Z,82.23
2022-11-05T10:01:43.322Z,82.34
2022-11-05T10:02:43.210Z,82.95
2022-11-05T10:03:43.128Z,84.03
2022-11-05T10:04:43.114Z,84.24
2022-11-05T10:05:43.181Z,83.52
2022-11-05T10:06:43.085Z,84.20
2022-11-05T10:07:43.073Z,83.28
2022-11-05T10:08:43.068Z,82.15
2022-11-05T10:09:43.077Z,82.97
2022-11-05T10:10:43.050Z,82.87
2022-11-05T10:11:43.040Z,82.46
2022-11-05T10:12:43.018Z,81.65
2022-11-05T10:13:43.007Z,82.36
2022-11-05T10:14:43.008Z,82.05
2022-11-05T10:15:43.103Z,82.46
2022-11-05T10:16:42.976Z,81.85
2022-11-05T10:17:42.977Z,82.26
2022-11-05T10:18:42.956Z,81.03
2022-11-05T10:19:42.947Z,80.48
2022-11-05T10:20:42.940Z,81.20
2022-11-05T10:22:05.645Z,80.99
2022-11-05T10:22:48.307Z,80.34
2022-11-05T10:23:43.918Z,80.58
2022-11-05T10:24:42.892Z,80.96
2022-11-05T10:25:42.880Z,80.24
2022-11-05T10:26:42.867Z,79.63
2022-11-05T10:27:42.861Z,80.20
2022-11-05T10:28:42.838Z,79.90
2022-11-05T10:29:42.838Z,79.59
2022-11-05T10:30:42.824Z,79.69
2022-11-05T10:31:42.828Z,79.28
2022-11-05T10:32:42.804Z,79.08
2022-11-05T10:33:42.784Z,78.77
2022-11-05T10:34:42.802Z,79.59
2022-11-05T10:35:42.760Z,79.75
2022-11-05T10:36:42.753Z,79.55
2022-11-05T10:37:42.739Z,79.66
2022-11-05T10:38:42.734Z,78.60
2022-11-05T10:39:42.737Z,78.70
2022-11-05T10:40:42.708Z,79.00
2022-11-05T10:41:42.720Z,79.32
2022-11-05T10:42:42.694Z,79.52
2022-11-05T10:43:42.675Z,78.39
2022-11-05T10:44:42.673Z,78.39
2022-11-05T10:45:42.650Z,79.00
2022-11-05T10:46:42.660Z,78.70
2022-11-05T10:47:42.651Z,78.19
2022-11-05T10:48:44.129Z,78.80
2022-11-05T10:49:42.607Z,78.36
2022-11-05T10:50:42.620Z,77.64
2022-11-05T10:51:42.583Z,77.95
2022-11-05T10:52:42.582Z,77.71
2022-11-05T10:53:49.661Z,77.40
2022-11-05T10:54:42.659Z,77.61
2022-11-05T10:55:43.549Z,77.00
2022-11-05T10:56:42.540Z,77.40
2022-11-05T10:57:42.535Z,77.20
2022-11-05T10:58:42.515Z,77.71
2022-11-05T10:59:42.489Z,77.91
2022-11-05T11:00:42.544Z,77.30
2022-11-05T11:01:42.611Z,76.93
2022-11-05T11:02:42.483Z,76.97
2022-11-05T11:03:42.563Z,77.58
2022-11-05T11:04:42.439Z,77.89
2022-11-05T11:05:42.421Z,77.78
2022-11-05T11:06:42.515Z,77.92
2022-11-05T11:07:42.450Z,78.43
2022-11-05T11:08:42.391Z,78.53
2022-11-05T11:09:42.518Z,79.04
2022-11-05T11:10:42.371Z,79.04
2022-11-05T11:11:42.368Z,79.04
2022-11-05T11:12:42.368Z,79.04
2022-11-05T11:13:42.348Z,78.84
2022-11-05T11:14:42.325Z,78.84
2022-11-05T11:15:42.312Z,79.62
2022-11-05T11:16:42.305Z,78.74
2022-11-05T11:17:42.299Z,78.33
2022-11-05T11:18:42.307Z,79.04
2022-11-05T11:19:42.297Z,79.04
2022-11-05T11:20:42.261Z,79.39
2022-11-05T11:21:42.244Z,79.18
2022-11-05T11:22:42.247Z,79.18
2022-11-05T11:23:42.226Z,79.49
2022-11-05T11:24:42.225Z,79.80
2022-11-05T11:25:42.218Z,79.39
2022-11-05T11:26:42.193Z,79.45
2022-11-05T11:27:42.178Z,79.66
2022-11-05T11:28:42.180Z,79.14
2022-11-05T11:29:46.589Z,79.55
2022-11-05T11:30:43.149Z,79.75
2022-11-05T11:31:42.161Z,79.14
2022-11-05T11:32:42.125Z,79.35
2022-11-05T11:33:42.166Z,79.45
2022-11-05T11:34:42.105Z,78.43
2022-11-05T11:35:42.230Z,78.33
2022-11-05T11:36:42.082Z,78.37
2022-11-05T11:37:42.334Z,78.88
2022-11-05T11:38:42.064Z,78.88
2022-11-05T11:39:42.052Z,79.08
2022-11-05T11:40:42.038Z,79.75
2022-11-05T11:41:42.032Z,78.84
2022-11-05T11:42:42.015Z,79.04
2022-11-05T11:43:42.011Z,78.94
2022-11-05T11:44:41.992Z,79.55
2022-11-05T11:45:41.985Z,78.94
2022-11-05T11:46:41.978Z,78.84
2022-11-05T11:47:41.955Z,79.11
2022-11-05T11:48:41.947Z,79.00
2022-11-05T11:49:41.996Z,78.50
2022-11-05T11:50:41.924Z,77.82
2022-11-05T11:51:41.940Z,77.92
2022-11-05T11:52:41.904Z,78.23
2022-11-05T11:53:41.890Z,79.04
2022-11-05T11:54:41.889Z,79.41
2022-11-05T11:55:41.866Z,79.21
2022-11-05T11:56:41.872Z,78.70
2022-11-05T11:57:41.850Z,78.80
2022-11-05T11:58:41.833Z,78.60
2022-11-05T12:00:07.238Z,78.66
2022-11-05T12:00:42.817Z,78.56
2022-11-05T12:01:41.876Z,78.97
2022-11-05T12:02:41.887Z,77.55
2022-11-05T12:03:41.788Z,78.02
2022-11-05T12:04:41.793Z,78.73
2022-11-05T12:05:41.755Z,78.73
2022-11-05T12:06:41.765Z,78.22
2022-11-05T12:07:42.499Z,77.24
2022-11-05T12:08:45.647Z,77.17
2022-11-05T12:09:41.720Z,78.09
2022-11-05T12:10:41.701Z,78.50
2022-11-05T12:11:41.697Z,78.50
2022-11-05T12:12:41.687Z,79.04
2022-11-05T12:13:41.689Z,79.35
2022-11-05T12:14:46.299Z,79.52
2022-11-05T12:15:42.651Z,79.04
2022-11-05T12:16:41.665Z,78.64
2022-11-05T12:17:41.630Z,78.84
2022-11-05T12:18:41.613Z,79.04
2022-11-05T12:19:41.599Z,79.25
2022-11-05T12:20:41.620Z,78.53
2022-11-05T12:21:52.488Z,79.25
2022-11-05T12:22:42.575Z,79.14
2022-11-05T12:23:41.578Z,79.14
2022-11-05T12:24:41.545Z,79.86
2022-11-05T12:25:41.640Z,78.94
2022-11-05T12:26:41.538Z,78.67
2022-11-05T12:27:41.536Z,79.28
2022-11-05T12:29:04.539Z,79.35
2022-11-05T12:29:42.486Z,79.80
2022-11-05T12:30:41.491Z,79.59
2022-11-05T12:31:41.483Z,80.27
2022-11-05T12:32:41.554Z,79.59
2022-11-05T12:33:41.467Z,79.39
2022-11-05T12:34:41.434Z,79.55
2022-11-05T12:35:46.734Z,79.49
2022-11-05T12:36:42.413Z,79.80
2022-11-05T12:37:41.400Z,79.80
2022-11-05T12:38:41.396Z,79.49
2022-11-05T12:39:41.425Z,79.90
2022-11-05T12:40:41.393Z,79.69
2022-11-05T12:41:41.360Z,79.59
2022-11-05T12:42:41.350Z,80.00
2022-11-05T12:43:41.334Z,79.69
2022-11-05T12:44:41.332Z,79.80
2022-11-05T12:45:41.329Z,80.34
2022-11-05T12:46:41.314Z,80.82
2022-11-05T12:47:41.288Z,80.41
2022-11-05T12:48:41.279Z,80.91
2022-11-05T12:49:41.283Z,80.82
2022-11-05T12:50:41.264Z,80.51
2022-11-05T12:51:41.250Z,80.91
2022-11-05T12:52:41.242Z,80.10